LRBC

Details ICAO LRBC (BCM)
Name BACAU
Region Romania
Timezone Europe/Bucharest (UTC+3.0)
Plans Departing 14
Arriving 21
Stats Elevation 607 ft / 185 m (AMSL)
Location 46.521904° 26.910177°
Runways 1
Magnetic Variation 6.117° E
Sunrise 2018-05-25 02:29:55 UTC / 2018-05-25 05:29:55 Local
Sunset 2018-05-25 17:51:32 UTC / 2018-05-25 20:51:32 Local
Advertisement - Login to hide

Runways

ID Width Length Bearing (true) Bearing (mag) Surface Threshold Offset Overrun Length
16 262 ft / 80 m 8,166 ft / 2,489 m 164.87° 158.75° Concrete 0 ft / 0 m 0 ft / 0 m
34 262 ft / 80 m 8,166 ft / 2,489 m 344.87° 338.75° Concrete 0 ft / 0 m 0 ft / 0 m

Map

Weather


0- 5 10 15 20 25 30 35+ Temperature / ° C

Clouds and Precipitation
Forecast for 2018-05-25 12:00 UTC. Updated an hour ago

Ground ~20,000 ft ~40,000 ft Winds

METAR

LRBC 251030Z 34010KT 9999 FEW050 26/15 Q1017

TAF

Not found

Frequencies

Tower 118.60 MHz TWR
Approach 133.70 MHz PRECISION
Approach 118.60 MHz APP
Warning: Do not use this data for real-world aviation or navigation. No guarantee of current accuracy is given.